Sausalito, CA (94965)

12:00 PM PST on January 24, 2017 (GMT -0800)
North Sausalito (Spring St) | | Change Station
Active Advisory: High Surf Advisory

Elev 158 ft 37.86 °N, 122.50 °W | Updated 12 seconds ago

Partly Cloudy
Partly Cloudy
52.0 °F
Feels Like 52.0 °F
N
2.5
Wind Variable Wind from NNW
Gusts 2.5 mph

Today
High -- | Low -- °F
--% Chance of Precip.
Yesterday
High -- | Low -- °F
Precip. -- in
Pressure 30.10 in
Visibility 10.0 miles
Clouds Few 2000 ft
Mostly Cloudy 16000 ft
Dew Point 41 °F
Humidity 66%
Rainfall 0.00 in
Snow Depth Not available.
7:19 AM 5:24 PM
Waning Crescent, 10% visible
METAR KSFO 241956Z 03010KT 10SM FEW020 BKN160 09/05 A3010 RMK AO2 SLP191 T00940050
Pressure 30.10 in
Visibility 10.0 miles
Clouds Few 2000 ft
Mostly Cloudy 16000 ft
Dew Point 41 °F
Humidity 66%
Rainfall 0.00 in
Snow Depth Not available.
7:19 AM 5:24 PM
Waning Crescent, 10% visible
METAR KSFO 241956Z 03010KT 10SM FEW020 BKN160 09/05 A3010 RMK AO2 SLP191 T00940050

Get Your Daily Forecast Email!

Thanks for signing up!

Be on the lookout for a verification email in your inbox.

You'll start receiving the daily forecast at 8 AM.

×

10-Day Weather Forecast

Almanac

Astronomy

Jan. 24, 2017 Rise Set
Actual Time
Civil Twilight
Nautical Twilight
Astronomical Twilight
Moon
Length of Visible Light
Length of Day
Tomorrow will be .
, % of the Moon is Illuminated

Today's Extremes

State Highs State Lows

Community

WunderPhotos

Upload Photos

1,962,540 photos uploaded!

WunderBlog® & News

Nearby

Air Quality

  Air Quality AQ Index Pollutant
Not available.

Snow Depth

Station Depth Elevation

Earthquake Activity

City Distance Mag. Time & Date
Minimum magnitude displayed is 2.5.

Coastal Water Temperatures

Place Temperature

Stations

Nearby Weather Stations

Station Location Temp. Windchill Dew Point Humidity Wind Precip. Elev Updated Type
                   

Watches & Warnings

High Surf Advisory
Issued: 4:25 AM PST Jan. 24, 2017 – National Weather Service

... High surf advisory in effect until 4 PM PST this afternoon...

The National Weather Service in San Francisco has issued a high
surf advisory... which is in effect until 4 PM PST this afternoon.

* Swell... west swell 13 to 16 feet. Swell periods 14 seconds.

* Surf... breaker heights locally 20 to 25 ft.

* Timing... continuing through Tuesday afternoon.

* Impacts... large breaking waves... strong rip currents... and
sneaker waves.

Precautionary/preparedness actions...

A high surf advisory means that high surf will affect beaches in
the advisory area... producing rip currents and localized beach
erosion.